createdAt,value
2023-04-28T00:02:20.072Z,1.37
2023-04-28T00:04:47.653Z,1.20
2023-04-28T00:07:14.978Z,0.70
2023-04-28T00:09:42.388Z,1.37
2023-04-28T00:12:09.497Z,2.23
2023-04-28T00:14:36.665Z,0.50
2023-04-28T00:17:03.840Z,0.50
2023-04-28T00:19:31.084Z,0.70
2023-04-28T00:21:58.298Z,0.60
2023-04-28T00:24:25.578Z,1.53
2023-04-28T00:26:52.685Z,0.70
2023-04-28T00:29:20.319Z,1.07
2023-04-28T00:31:47.451Z,0.70
2023-04-28T00:34:15.401Z,0.90
2023-04-28T00:36:43.026Z,0.93
2023-04-28T00:39:10.165Z,0.60
2023-04-28T00:41:37.362Z,0.70
2023-04-28T00:44:04.816Z,1.70
2023-04-28T00:46:33.071Z,0.97
2023-04-28T00:49:00.488Z,0.77
2023-04-28T00:51:29.067Z,1.20
2023-04-28T00:53:56.810Z,0.67
2023-04-28T00:56:23.924Z,1.87
2023-04-28T00:58:51.638Z,1.73
2023-04-28T01:01:19.199Z,1.43
2023-04-28T01:03:46.949Z,1.27
2023-04-28T01:06:14.796Z,2.30
2023-04-28T01:08:42.617Z,0.70
2023-04-28T01:11:14.547Z,0.83
2023-04-28T01:13:41.711Z,1.20
2023-04-28T01:16:08.894Z,0.87
2023-04-28T01:18:36.229Z,1.30
2023-04-28T01:21:04.538Z,1.90
2023-04-28T01:23:31.877Z,1.73
2023-04-28T01:25:59.444Z,1.37
2023-04-28T01:28:26.802Z,1.13
2023-04-28T01:30:53.921Z,0.77
2023-04-28T01:33:21.595Z,1.37
2023-04-28T01:35:49.038Z,0.90
2023-04-28T01:38:16.812Z,1.30
2023-04-28T01:40:43.951Z,0.50
2023-04-28T01:43:11.112Z,1.00
2023-04-28T01:45:38.614Z,0.70
2023-04-28T01:48:05.964Z,1.17
2023-04-28T01:50:33.202Z,1.00
2023-04-28T01:53:00.312Z,1.80
2023-04-28T01:55:28.030Z,0.80
2023-04-28T01:57:58.038Z,1.07
2023-04-28T02:00:25.737Z,1.03
2023-04-28T02:02:53.008Z,0.60
2023-04-28T02:05:20.244Z,1.03
2023-04-28T02:07:47.955Z,0.93
2023-04-28T02:10:15.127Z,0.70
2023-04-28T02:12:42.718Z,0.87
2023-04-28T02:15:10.157Z,1.00
2023-04-28T02:17:37.314Z,1.20
2023-04-28T02:20:05.484Z,1.73
2023-04-28T02:22:32.583Z,2.03
2023-04-28T02:24:59.751Z,1.07
2023-04-28T02:27:27.049Z,0.80
2023-04-28T02:29:54.184Z,1.07
2023-04-28T02:32:22.462Z,0.60
2023-04-28T02:34:54.503Z,0.83
2023-04-28T02:37:21.780Z,0.53
2023-04-28T02:39:49.195Z,1.43
2023-04-28T02:42:16.919Z,0.93
2023-04-28T02:44:44.126Z,1.17
2023-04-28T02:47:12.103Z,1.00
2023-04-28T02:49:39.273Z,1.23
2023-04-28T02:52:06.376Z,0.60
2023-04-28T02:54:35.311Z,1.30
2023-04-28T02:57:04.493Z,0.53
2023-04-28T02:59:32.162Z,0.60
2023-04-28T03:01:59.282Z,1.37
2023-04-28T03:04:26.434Z,0.77
2023-04-28T03:06:53.690Z,1.03
2023-04-28T03:09:21.211Z,1.67
2023-04-28T03:11:48.702Z,1.67
2023-04-28T03:14:16.136Z,1.50
2023-04-28T03:16:43.974Z,0.50
2023-04-28T03:19:11.149Z,1.37
2023-04-28T03:21:38.295Z,1.03
2023-04-28T03:24:06.226Z,1.00
2023-04-28T03:26:33.418Z,1.57
2023-04-28T03:29:00.946Z,0.60
2023-04-28T03:31:28.088Z,0.87
2023-04-28T03:33:55.352Z,1.60
2023-04-28T03:36:22.537Z,0.40
2023-04-28T03:38:49.689Z,0.50
2023-04-28T03:41:16.968Z,0.80
2023-04-28T03:43:44.247Z,0.80
2023-04-28T03:46:11.543Z,0.77
2023-04-28T03:48:38.697Z,1.60
2023-04-28T03:51:05.980Z,1.03
2023-04-28T03:53:33.556Z,1.00
2023-04-28T03:56:00.997Z,0.70
2023-04-28T03:58:28.948Z,0.50
2023-04-28T04:00:56.410Z,0.80
2023-04-28T04:03:26.490Z,0.73
2023-04-28T04:05:55.300Z,1.13
2023-04-28T04:08:22.934Z,0.80
2023-04-28T04:10:52.779Z,2.17
2023-04-28T04:13:20.446Z,1.80
2023-04-28T04:15:48.137Z,2.27
2023-04-28T04:18:15.314Z,2.67
2023-04-28T04:20:42.441Z,1.50
2023-04-28T04:23:09.869Z,1.30
2023-04-28T04:25:37.044Z,1.60
2023-04-28T04:28:04.635Z,1.10
2023-04-28T04:30:31.812Z,3.23
2023-04-28T04:32:59.622Z,1.00
2023-04-28T04:35:26.731Z,0.80
2023-04-28T04:37:54.566Z,0.50
2023-04-28T04:40:21.874Z,2.13
2023-04-28T04:42:49.392Z,0.50
2023-04-28T04:45:17.873Z,1.13
2023-04-28T04:47:45.191Z,1.40
2023-04-28T04:50:12.613Z,1.17
2023-04-28T04:52:39.711Z,1.60
2023-04-28T04:55:07.679Z,0.70
2023-04-28T04:57:34.814Z,0.60
2023-04-28T05:00:01.950Z,1.30
2023-04-28T05:02:30.051Z,1.13
2023-04-28T05:05:08.135Z,0.53
2023-04-28T05:07:44.480Z,0.70
2023-04-28T05:10:11.803Z,1.47
2023-04-28T05:12:39.091Z,1.80
2023-04-28T05:15:08.108Z,1.20
2023-04-28T05:17:35.328Z,1.07
2023-04-28T05:20:02.664Z,0.60
2023-04-28T05:22:31.640Z,0.63
2023-04-28T05:24:59.083Z,0.87
2023-04-28T05:27:26.194Z,3.10
2023-04-28T05:29:53.320Z,1.67
2023-04-28T05:32:21.956Z,0.70
2023-04-28T05:34:49.156Z,1.03
2023-04-28T05:37:16.422Z,2.00
2023-04-28T05:39:43.563Z,1.20
2023-04-28T05:42:10.669Z,0.67
2023-04-28T05:44:37.780Z,1.20
2023-04-28T05:47:04.922Z,0.50
2023-04-28T05:49:32.062Z,0.87
2023-04-28T05:51:59.376Z,1.43
2023-04-28T05:54:27.526Z,0.93
2023-04-28T05:56:54.672Z,1.20
2023-04-28T05:59:21.838Z,2.10
2023-04-28T06:01:50.827Z,0.70
2023-04-28T06:04:18.590Z,2.80
2023-04-28T06:06:46.129Z,0.80
2023-04-28T06:09:13.310Z,2.00
2023-04-28T06:11:40.584Z,0.57
2023-04-28T06:14:07.763Z,1.00
2023-04-28T06:16:35.040Z,1.27
2023-04-28T06:19:02.388Z,2.30
2023-04-28T06:21:29.557Z,1.50
2023-04-28T06:23:56.696Z,1.33
2023-04-28T06:26:24.648Z,1.10
2023-04-28T06:28:52.162Z,0.70
2023-04-28T06:31:19.466Z,0.80
2023-04-28T06:33:46.598Z,1.07
2023-04-28T06:36:14.099Z,0.73
2023-04-28T06:38:43.218Z,1.40
2023-04-28T06:41:11.404Z,1.50
2023-04-28T06:43:38.909Z,1.00
2023-04-28T06:46:06.581Z,1.80
2023-04-28T06:48:33.950Z,1.07
2023-04-28T06:51:01.293Z,0.63
2023-04-28T06:53:28.433Z,1.43
2023-04-28T06:55:56.433Z,1.93
2023-04-28T06:58:23.571Z,2.43
2023-04-28T07:00:50.749Z,2.47
2023-04-28T07:03:18.034Z,1.50
2023-04-28T07:05:45.455Z,1.23
2023-04-28T07:08:12.773Z,1.63
2023-04-28T07:10:40.722Z,2.13
2023-04-28T07:13:08.499Z,1.03
2023-04-28T07:15:35.728Z,0.87
2023-04-28T07:18:03.417Z,1.27
2023-04-28T07:20:30.568Z,1.30
2023-04-28T07:22:57.707Z,1.30
2023-04-28T07:25:24.950Z,1.23
2023-04-28T07:27:52.294Z,1.80
2023-04-28T07:32:53.235Z,2.07
2023-04-28T07:35:20.397Z,1.63
2023-04-28T07:37:47.484Z,1.17
2023-04-28T07:40:14.831Z,3.13
2023-04-28T07:42:41.984Z,1.13
2023-04-28T07:45:09.450Z,1.47
2023-04-28T07:47:36.732Z,1.40
2023-04-28T07:50:06.377Z,1.70
2023-04-28T07:52:34.017Z,1.50
2023-04-28T07:55:02.351Z,1.67
2023-04-28T07:57:29.509Z,0.70
2023-04-28T07:59:57.102Z,3.10
2023-04-28T08:02:24.316Z,1.60
2023-04-28T08:04:51.622Z,1.50
2023-04-28T08:07:19.031Z,1.13
2023-04-28T08:09:47.254Z,1.27
2023-04-28T08:12:15.087Z,1.57
2023-04-28T08:14:42.638Z,1.17
2023-04-28T08:17:10.436Z,1.23
2023-04-28T08:19:37.555Z,2.10
2023-04-28T08:22:07.015Z,1.10
2023-04-28T08:24:34.523Z,1.37
2023-04-28T08:27:03.179Z,2.00
2023-04-28T08:29:32.090Z,0.80
2023-04-28T08:32:01.228Z,1.07
2023-04-28T08:34:28.584Z,0.63
2023-04-28T08:36:56.095Z,1.67
2023-04-28T08:39:23.824Z,1.40
2023-04-28T08:41:51.536Z,1.07
2023-04-28T08:44:19.192Z,1.40
2023-04-28T08:46:47.392Z,0.80
2023-04-28T08:49:18.576Z,1.60
2023-04-28T08:51:47.791Z,1.20
2023-04-28T08:54:28.988Z,0.50
2023-04-28T08:56:57.180Z,1.10
2023-04-28T08:59:24.578Z,1.27
2023-04-28T09:01:52.247Z,0.50
2023-04-28T09:04:20.551Z,3.97
2023-04-28T09:06:48.304Z,1.93
2023-04-28T09:09:28.372Z,0.90
2023-04-28T09:11:59.409Z,1.67
2023-04-28T09:14:27.579Z,1.20
2023-04-28T09:16:54.808Z,1.40
2023-04-28T09:19:23.013Z,1.30
2023-04-28T09:21:51.222Z,0.97
2023-04-28T09:24:28.510Z,1.57
2023-04-28T09:26:55.920Z,0.70
2023-04-28T09:29:23.200Z,1.23
2023-04-28T09:31:51.588Z,1.53
2023-04-28T09:34:19.046Z,2.27
2023-04-28T09:36:46.391Z,1.97
2023-04-28T09:39:13.555Z,2.10
2023-04-28T09:41:45.305Z,1.27
2023-04-28T09:44:17.048Z,0.93
2023-04-28T09:46:45.220Z,1.70
2023-04-28T09:49:13.280Z,1.67
2023-04-28T09:51:41.436Z,1.33
2023-04-28T09:54:08.627Z,1.43
2023-04-28T09:56:42.136Z,2.50
2023-04-28T09:59:09.230Z,2.27
2023-04-28T10:01:40.975Z,2.17
2023-04-28T10:04:08.640Z,1.23
2023-04-28T10:06:39.846Z,1.77
2023-04-28T10:09:08.315Z,1.13
2023-04-28T10:11:35.662Z,1.93
2023-04-28T10:14:03.209Z,1.50
2023-04-28T10:16:33.190Z,1.63
2023-04-28T10:19:01.323Z,1.20
2023-04-28T10:21:29.910Z,1.13
2023-04-28T10:23:57.133Z,0.60
2023-04-28T10:26:28.425Z,1.50
2023-04-28T10:28:55.578Z,2.10
2023-04-28T10:31:23.262Z,2.40
2023-04-28T10:33:50.602Z,1.77
2023-04-28T10:36:37.275Z,1.33
2023-04-28T10:39:09.648Z,1.27
2023-04-28T10:41:36.904Z,1.80
2023-04-28T10:44:23.965Z,1.60
2023-04-28T10:47:02.144Z,3.70
2023-04-28T10:49:48.208Z,3.30
2023-04-28T10:52:34.842Z,2.97
2023-04-28T10:55:22.603Z,2.30
2023-04-28T10:58:09.881Z,1.83
2023-04-28T11:00:37.819Z,2.77
2023-04-28T11:03:06.342Z,3.80
2023-04-28T11:05:35.102Z,2.03
2023-04-28T11:08:20.919Z,3.40
2023-04-28T11:11:06.890Z,2.20
2023-04-28T11:13:34.627Z,3.83
2023-04-28T11:16:05.648Z,1.53
2023-04-28T11:18:42.437Z,2.67
2023-04-28T11:21:09.691Z,2.40
2023-04-28T11:23:36.863Z,2.10
2023-04-28T11:26:03.990Z,3.27
2023-04-28T11:28:31.433Z,3.50
2023-04-28T11:31:11.608Z,4.27
2023-04-28T11:33:39.195Z,3.70
2023-04-28T11:36:07.160Z,2.40
2023-04-28T11:38:47.089Z,3.40
2023-04-28T11:41:14.926Z,2.63
2023-04-28T11:43:47.391Z,2.30
2023-04-28T11:46:22.049Z,4.03
2023-04-28T11:48:49.706Z,4.63
2023-04-28T11:51:33.410Z,2.33
2023-04-28T11:54:01.420Z,2.83
2023-04-28T11:56:29.232Z,3.07
2023-04-28T11:59:10.561Z,1.80
2023-04-28T12:01:52.537Z,5.23
2023-04-28T12:04:32.112Z,3.20
2023-04-28T12:07:02.180Z,4.63
2023-04-28T12:09:29.656Z,2.83
2023-04-28T12:11:58.954Z,2.77
2023-04-28T12:14:26.642Z,3.13
2023-04-28T12:16:53.854Z,2.70
2023-04-28T12:19:21.149Z,2.40
2023-04-28T12:22:01.380Z,3.53
2023-04-28T12:24:28.644Z,4.40
2023-04-28T12:26:55.932Z,3.60
2023-04-28T12:29:38.355Z,2.30
2023-04-28T12:32:09.494Z,3.60
2023-04-28T12:34:37.442Z,2.47
2023-04-28T12:37:05.626Z,2.70
2023-04-28T12:39:34.888Z,2.40
2023-04-28T12:42:03.204Z,3.37
2023-04-28T12:44:35.931Z,2.23
2023-04-28T12:47:04.791Z,1.47
2023-04-28T12:49:31.960Z,3.10
2023-04-28T12:51:59.183Z,2.40
2023-04-28T12:54:26.770Z,2.20
2023-04-28T12:56:57.028Z,1.63
2023-04-28T12:59:24.239Z,2.33
2023-04-28T13:01:51.720Z,2.60
2023-04-28T13:04:19.605Z,3.93
2023-04-28T13:06:46.959Z,3.13
2023-04-28T13:09:17.751Z,2.90
2023-04-28T13:11:45.664Z,1.83
2023-04-28T13:14:12.823Z,2.40
2023-04-28T13:16:40.053Z,1.20
2023-04-28T13:19:13.626Z,2.10
2023-04-28T13:21:43.699Z,2.10
2023-04-28T13:24:11.922Z,1.70
2023-04-28T13:26:39.115Z,2.17
2023-04-28T13:29:08.334Z,2.20
2023-04-28T13:31:35.573Z,1.33
2023-04-28T13:34:04.065Z,2.30
2023-04-28T13:36:31.306Z,2.10
2023-04-28T13:39:00.333Z,2.30
2023-04-28T13:41:28.856Z,1.80
2023-04-28T13:43:56.061Z,1.60
2023-04-28T13:46:23.258Z,1.10
2023-04-28T13:48:50.563Z,1.40
2023-04-28T13:51:17.862Z,1.93
2023-04-28T13:53:45.390Z,1.63
2023-04-28T13:56:12.596Z,2.23
2023-04-28T13:58:39.684Z,1.83
2023-04-28T14:01:07.501Z,1.80
2023-04-28T14:03:36.041Z,2.17
2023-04-28T14:06:06.422Z,1.40
2023-04-28T14:08:33.872Z,1.30
2023-04-28T14:11:01.777Z,1.43
2023-04-28T14:13:29.735Z,1.97
2023-04-28T14:15:59.688Z,1.80
2023-04-28T14:18:27.712Z,2.40
2023-04-28T14:20:54.997Z,2.60
2023-04-28T14:23:22.778Z,2.50
2023-04-28T14:25:50.392Z,3.20
2023-04-28T14:28:17.680Z,3.00
2023-04-28T14:30:45.045Z,2.47
2023-04-28T14:33:12.202Z,1.57
2023-04-28T14:35:39.350Z,2.50
2023-04-28T14:38:06.460Z,3.33
2023-04-28T14:40:36.802Z,2.40
2023-04-28T14:43:04.233Z,2.23
2023-04-28T14:45:31.496Z,2.33
2023-04-28T14:47:58.776Z,2.30
2023-04-28T14:50:25.914Z,1.77
2023-04-28T14:52:53.132Z,1.60
2023-04-28T14:55:20.417Z,2.80
2023-04-28T14:57:48.336Z,1.60
2023-04-28T15:00:15.957Z,1.23
2023-04-28T15:02:43.254Z,2.10
2023-04-28T15:05:12.011Z,1.93
2023-04-28T15:07:39.368Z,1.73
2023-04-28T15:10:06.771Z,2.30
2023-04-28T15:12:35.099Z,1.80
2023-04-28T15:15:02.230Z,1.30
2023-04-28T15:17:29.873Z,2.20
2023-04-28T15:19:58.150Z,1.17
2023-04-28T15:22:25.338Z,0.80
2023-04-28T15:24:52.708Z,1.30
2023-04-28T15:27:20.804Z,1.40
2023-04-28T15:29:48.462Z,1.10
2023-04-28T15:32:15.952Z,1.50
2023-04-28T15:34:44.639Z,1.40
2023-04-28T15:37:30.360Z,0.97
2023-04-28T15:39:57.507Z,1.07
2023-04-28T15:42:24.586Z,0.63
2023-04-28T15:44:52.727Z,1.03
2023-04-28T15:47:20.137Z,0.90
2023-04-28T15:49:47.801Z,0.60
2023-04-28T15:52:15.278Z,0.93
2023-04-28T15:54:42.426Z,0.50
2023-04-28T15:57:10.175Z,1.30
2023-04-28T15:59:37.261Z,0.90
2023-04-28T16:02:04.397Z,0.77
2023-04-28T16:04:32.148Z,0.43
2023-04-28T16:07:02.399Z,0.90
2023-04-28T16:09:29.965Z,0.37
2023-04-28T16:11:59.830Z,0.53
2023-04-28T16:14:27.474Z,0.83
2023-04-28T16:16:54.589Z,0.50
2023-04-28T16:19:25.700Z,0.43
2023-04-28T16:21:53.387Z,0.50
2023-04-28T16:24:22.365Z,1.17
2023-04-28T16:26:49.955Z,0.90
2023-04-28T16:29:17.134Z,0.50
2023-04-28T16:31:45.520Z,0.37
2023-04-28T16:34:13.351Z,0.30
2023-04-28T16:36:41.238Z,0.63
2023-04-28T16:39:09.492Z,0.50
2023-04-28T16:41:38.004Z,0.73
2023-04-28T16:44:05.145Z,1.50
2023-04-28T16:46:32.314Z,0.50
2023-04-28T16:48:59.513Z,0.30
2023-04-28T16:51:28.264Z,0.40
2023-04-28T16:53:55.505Z,0.80
2023-04-28T16:56:22.709Z,0.50
2023-04-28T16:58:49.836Z,0.30
2023-04-28T17:01:17.443Z,0.60
2023-04-28T17:03:45.168Z,0.60
2023-04-28T17:06:12.400Z,0.50
2023-04-28T17:08:41.222Z,0.60
2023-04-28T17:11:09.969Z,0.43
2023-04-28T17:13:37.492Z,0.43
2023-04-28T17:16:05.587Z,0.73
2023-04-28T17:18:32.965Z,1.13
2023-04-28T17:21:00.058Z,0.47
2023-04-28T17:23:28.117Z,0.77
2023-04-28T17:25:55.844Z,0.50
2023-04-28T17:28:25.193Z,1.03
2023-04-28T17:30:52.987Z,0.93
2023-04-28T17:33:20.100Z,0.40
2023-04-28T17:35:47.538Z,0.50
2023-04-28T17:38:15.349Z,0.20
2023-04-28T17:40:46.831Z,0.40
2023-04-28T17:43:13.983Z,0.50
2023-04-28T17:45:42.020Z,0.57
2023-04-28T17:48:09.173Z,0.50
2023-04-28T17:50:36.572Z,0.40
2023-04-28T17:53:03.753Z,0.40
2023-04-28T17:55:31.263Z,0.60
2023-04-28T17:57:58.372Z,0.50
2023-04-28T18:00:25.549Z,0.40
2023-04-28T18:02:54.091Z,0.60
2023-04-28T18:05:24.014Z,0.30
2023-04-28T18:07:51.561Z,0.50
2023-04-28T18:10:19.305Z,0.50
2023-04-28T18:12:46.599Z,0.20
2023-04-28T18:15:14.364Z,0.30
2023-04-28T18:17:41.716Z,0.40
2023-04-28T18:20:09.575Z,0.67
2023-04-28T18:22:38.296Z,0.50
2023-04-28T18:25:05.873Z,0.33
2023-04-28T18:27:33.006Z,0.63
2023-04-28T18:30:05.848Z,0.70
2023-04-28T18:32:34.304Z,1.17
2023-04-28T18:35:01.516Z,0.90
2023-04-28T18:37:30.079Z,0.60
2023-04-28T18:39:58.756Z,0.60
2023-04-28T18:42:27.351Z,0.50
2023-04-28T18:45:00.766Z,0.80
2023-04-28T18:47:28.663Z,0.50
2023-04-28T18:49:58.617Z,0.53
2023-04-28T18:52:25.804Z,0.30
2023-04-28T18:54:53.356Z,0.90
2023-04-28T18:57:20.558Z,1.00
2023-04-28T18:59:49.737Z,0.40
2023-04-28T19:02:17.761Z,0.30
2023-04-28T19:04:46.047Z,1.07
2023-04-28T19:07:13.259Z,1.20
2023-04-28T19:09:40.703Z,0.47
2023-04-28T19:12:08.085Z,0.77
2023-04-28T19:14:35.945Z,1.80
2023-04-28T19:17:03.555Z,0.70
2023-04-28T19:19:31.588Z,0.67
2023-04-28T19:21:58.714Z,0.80
2023-04-28T19:24:25.961Z,0.50
2023-04-28T19:26:53.672Z,0.50
2023-04-28T19:29:22.520Z,0.33
2023-04-28T19:31:49.680Z,1.10
2023-04-28T19:34:16.788Z,1.70
2023-04-28T19:36:43.949Z,1.10
2023-04-28T19:39:11.087Z,1.47
2023-04-28T19:41:38.319Z,1.00
2023-04-28T19:44:05.514Z,0.60
2023-04-28T19:46:32.684Z,1.03
2023-04-28T19:49:00.310Z,1.43
2023-04-28T19:51:27.776Z,0.70
2023-04-28T19:53:55.195Z,0.50
2023-04-28T19:56:22.402Z,0.53
2023-04-28T19:58:49.551Z,1.33
2023-04-28T20:01:17.025Z,1.17
2023-04-28T20:03:44.769Z,1.17
2023-04-28T20:06:16.519Z,1.00
2023-04-28T20:08:44.864Z,0.87
2023-04-28T20:11:12.184Z,0.70
2023-04-28T20:13:39.388Z,0.70
2023-04-28T20:16:07.242Z,1.13
2023-04-28T20:18:35.826Z,0.50
2023-04-28T20:21:03.602Z,0.63
2023-04-28T20:23:30.876Z,0.57
2023-04-28T20:25:59.378Z,1.03
2023-04-28T20:28:26.674Z,0.50
2023-04-28T20:30:53.812Z,0.77
2023-04-28T20:33:20.947Z,0.70
2023-04-28T20:35:48.797Z,1.30
2023-04-28T20:38:15.896Z,1.27
2023-04-28T20:40:44.563Z,0.93
2023-04-28T20:43:11.718Z,0.60
2023-04-28T20:45:41.775Z,0.90
2023-04-28T20:48:09.105Z,1.07
2023-04-28T20:50:38.461Z,0.87
2023-04-28T20:53:05.728Z,0.80
2023-04-28T20:55:32.850Z,1.43
2023-04-28T20:57:59.985Z,0.97
2023-04-28T21:00:27.147Z,0.40
2023-04-28T21:02:54.591Z,1.93
2023-04-28T21:05:23.675Z,0.70
2023-04-28T21:07:50.815Z,4.20
2023-04-28T21:10:17.995Z,2.30
2023-04-28T21:12:46.065Z,0.77
2023-04-28T21:15:13.912Z,1.40
2023-04-28T21:17:41.175Z,0.93
2023-04-28T21:20:09.471Z,1.67
2023-04-28T21:22:37.394Z,1.90
2023-04-28T21:25:06.108Z,1.47
2023-04-28T21:27:33.458Z,0.50
2023-04-28T21:30:00.612Z,1.60
2023-04-28T21:32:28.633Z,0.50
2023-04-28T21:34:55.881Z,0.67
2023-04-28T21:37:23.568Z,0.70
2023-04-28T21:39:51.653Z,1.07
2023-04-28T21:42:19.128Z,0.90
2023-04-28T21:44:46.255Z,1.50
2023-04-28T21:47:15.741Z,0.40
2023-04-28T21:49:46.491Z,0.40
2023-04-28T21:52:14.501Z,1.53
2023-04-28T21:54:41.737Z,0.93
2023-04-28T21:57:08.950Z,1.30
2023-04-28T21:59:36.521Z,1.00
2023-04-28T22:02:03.951Z,1.80
2023-04-28T22:04:31.897Z,1.43
2023-04-28T22:06:59.726Z,0.80
2023-04-28T22:09:28.049Z,1.13
2023-04-28T22:11:57.555Z,0.57
2023-04-28T22:14:39.642Z,1.17
2023-04-28T22:17:07.994Z,0.60
2023-04-28T22:19:35.140Z,0.53
2023-04-28T22:22:02.739Z,1.33
2023-04-28T22:24:29.844Z,0.97
2023-04-28T22:26:57.912Z,0.90
2023-04-28T22:29:26.457Z,0.80
2023-04-28T22:31:53.546Z,0.87
2023-04-28T22:34:22.117Z,0.80
2023-04-28T22:36:49.435Z,1.30
2023-04-28T22:39:16.906Z,1.53
2023-04-28T22:41:44.058Z,0.50
2023-04-28T22:44:11.250Z,1.23
2023-04-28T22:46:38.440Z,0.53
2023-04-28T22:49:05.601Z,0.90
2023-04-28T22:51:33.150Z,0.50
2023-04-28T22:54:01.474Z,0.53
2023-04-28T22:56:28.708Z,1.87
2023-04-28T22:58:56.185Z,0.90
2023-04-28T23:01:24.319Z,1.20
2023-04-28T23:03:51.696Z,0.90
2023-04-28T23:06:19.099Z,0.53
2023-04-28T23:08:46.435Z,0.60
2023-04-28T23:11:13.640Z,0.80
2023-04-28T23:13:40.739Z,0.90
2023-04-28T23:16:08.584Z,0.80
2023-04-28T23:18:35.851Z,0.83
2023-04-28T23:21:02.978Z,0.50
2023-04-28T23:23:30.379Z,0.53
2023-04-28T23:25:57.481Z,0.70
2023-04-28T23:28:24.669Z,0.50
2023-04-28T23:30:51.778Z,0.70
2023-04-28T23:33:19.150Z,0.70
2023-04-28T23:35:46.681Z,0.93
2023-04-28T23:38:13.952Z,0.93
2023-04-28T23:40:41.298Z,0.70
2023-04-28T23:43:08.566Z,2.17
2023-04-28T23:45:36.249Z,0.90
2023-04-28T23:48:03.809Z,0.97
2023-04-28T23:50:31.273Z,0.50
2023-04-28T23:52:58.380Z,0.60
2023-04-28T23:55:28.553Z,2.07
2023-04-28T23:57:55.706Z,0.87
